Time;durP1;ratioP1;P1;durP2;ratioP2;P2;SDS_P1;SDS_P2;PMS_P1;PMS_P2;Temp;Humidity;BMP_temperature;BMP_pressure;BME280_temperature;BME280_humidity;BME280_pressure;Samples;Min_cycle;Max_cycle;Signal;HPM_P1;HPM_P2
2022/10/05 00:00:34;;;;;;;0.60;0.47;;;16.80;99.90;;;;;;5089978;28;20060;-95
2022/10/05 00:03:01;;;;;;;1.02;0.60;;;16.80;99.90;;;;;;5057653;28;20175;-96
2022/10/05 00:05:30;;;;;;;1.73;0.60;;;16.80;99.90;;;;;;5072721;28;20546;-96
2022/10/05 00:08:14;;;;;;;2.15;0.70;;;16.80;99.90;;;;;;5055620;28;20081;-96
2022/10/05 00:10:47;;;;;;;2.08;0.60;;;16.80;99.90;;;;;;5055112;28;20049;-96
2022/10/05 00:13:15;;;;;;;1.05;0.55;;;16.80;99.90;;;;;;5068932;28;20052;-95
2022/10/05 00:15:43;;;;;;;2.22;0.77;;;16.90;99.90;;;;;;5108003;28;20074;-95
2022/10/05 00:18:22;;;;;;;1.58;1.02;;;16.90;99.90;;;;;;5092543;28;20040;-96
2022/10/05 00:20:49;;;;;;;1.38;0.60;;;16.90;99.90;;;;;;5073433;28;20074;-95
2022/10/05 00:23:22;;;;;;;2.63;0.73;;;16.90;99.90;;;;;;5073798;28;20103;-95
2022/10/05 00:25:49;;;;;;;2.28;0.55;;;16.90;99.90;;;;;;5052199;28;20083;-95
2022/10/05 00:28:20;;;;;;;1.73;0.73;;;16.90;99.90;;;;;;5055841;28;20045;-96
2022/10/05 00:30:48;;;;;;;1.80;0.50;;;16.90;99.90;;;;;;5075251;28;20044;-95
2022/10/05 00:33:15;;;;;;;1.05;0.52;;;16.90;99.90;;;;;;5089718;28;20045;-96
2022/10/05 00:35:42;;;;;;;0.90;0.40;;;16.90;99.90;;;;;;5062683;28;20059;-96
2022/10/05 00:38:09;;;;;;;1.02;0.55;;;16.90;99.90;;;;;;5063879;28;20043;-96
2022/10/05 00:41:01;;;;;;;0.43;0.43;;;16.90;99.90;;;;;;5071339;28;20040;-96
2022/10/05 00:43:48;;;;;;;1.38;0.57;;;16.90;99.90;;;;;;5092829;28;20048;-96
2022/10/05 00:46:57;;;;;;;0.68;0.68;;;16.90;99.90;;;;;;5108320;28;20051;-95
2022/10/05 00:49:46;;;;;;;1.15;0.77;;;16.90;99.90;;;;;;5102708;28;20074;-96
2022/10/05 00:52:20;;;;;;;0.85;0.40;;;16.90;99.90;;;;;;5100853;28;20076;-95
2022/10/05 00:54:54;;;;;;;1.10;0.50;;;16.90;99.90;;;;;;5086764;28;20045;-96
2022/10/05 00:57:25;;;;;;;;;;;16.90;99.90;;;;;;5088190;28;20630;-95
2022/10/05 01:00:11;;;;;;;1.67;0.55;;;16.90;99.90;;;;;;5080252;28;19973;-95
2022/10/05 01:02:56;;;;;;;1.92;0.75;;;16.90;99.90;;;;;;5064151;28;20385;-95
2022/10/05 01:06:09;;;;;;;1.90;0.68;;;16.90;99.90;;;;;;5098849;28;20044;-95
2022/10/05 01:09:08;;;;;;;0.80;0.55;;;16.90;99.90;;;;;;5083367;28;20062;-96
2022/10/05 01:11:52;;;;;;;2.17;0.80;;;16.90;99.90;;;;;;5086149;28;20040;-96
2022/10/05 01:14:26;;;;;;;0.75;0.45;;;16.90;99.90;;;;;;5058949;28;20092;-95
2022/10/05 01:17:08;;;;;;;0.98;0.60;;;16.90;99.90;;;;;;5064428;28;20044;-96
2022/10/05 01:19:54;;;;;;;0.57;0.52;;;16.90;99.90;;;;;;5035512;28;20055;-95
2022/10/05 01:22:51;;;;;;;0.70;0.43;;;16.90;99.90;;;;;;5063872;28;20087;-95
2022/10/05 01:25:29;;;;;;;1.40;0.70;;;16.90;99.90;;;;;;5111389;28;20129;-94
2022/10/05 01:28:22;;;;;;;2.25;0.77;;;16.90;99.90;;;;;;5098569;28;20048;-95
2022/10/05 01:31:08;;;;;;;0.90;0.50;;;16.90;99.90;;;;;;5077224;28;20047;-95
2022/10/05 01:34:40;;;;;;;1.00;0.55;;;16.90;99.90;;;;;;5077214;28;20044;-95
2022/10/05 01:37:26;;;;;;;1.00;0.60;;;16.90;99.90;;;;;;5066463;28;20049;-96
2022/10/05 01:40:15;;;;;;;0.70;0.50;;;16.90;99.90;;;;;;5074643;28;20040;-95
2022/10/05 01:42:52;;;;;;;2.30;0.88;;;16.90;99.90;;;;;;5078401;28;20051;-94
2022/10/05 01:45:40;;;;;;;1.65;0.60;;;16.90;99.90;;;;;;5090351;28;20044;-96
2022/10/05 01:48:14;;;;;;;1.15;0.63;;;16.90;99.90;;;;;;5061520;28;20052;-95
2022/10/05 01:50:57;;;;;;;0.47;0.43;;;16.90;99.90;;;;;;5093915;28;20040;-96
2022/10/05 01:53:42;;;;;;;1.73;0.60;;;17.00;99.90;;;;;;5091742;28;20124;-95
2022/10/05 01:56:29;;;;;;;0.45;0.30;;;16.90;99.90;;;;;;5093129;28;20128;-96
2022/10/05 01:59:36;;;;;;;0.95;0.40;;;17.00;99.90;;;;;;5093399;28;20052;-96
2022/10/05 02:02:15;;;;;;;0.73;0.40;;;17.00;99.90;;;;;;5095073;28;20140;-96
2022/10/05 02:05:04;;;;;;;3.30;0.63;;;16.90;99.90;;;;;;5061039;28;20064;-96
2022/10/05 02:07:49;;;;;;;2.35;0.73;;;16.90;99.90;;;;;;5062362;28;20151;-95
2022/10/05 02:10:24;;;;;;;1.05;0.60;;;17.00;99.90;;;;;;5091380;28;20044;-96
2022/10/05 02:12:59;;;;;;;0.88;0.50;;;17.00;99.90;;;;;;5093424;28;20041;-95
2022/10/05 02:15:34;;;;;;;0.47;0.40;;;17.00;99.90;;;;;;5058338;28;20067;-96
2022/10/05 02:18:05;;;;;;;1.67;0.77;;;16.90;99.90;;;;;;5058629;28;20067;-96
2022/10/05 02:20:36;;;;;;;1.45;0.43;;;16.90;99.90;;;;;;5057231;28;20052;-96
2022/10/05 02:23:07;;;;;;;0.50;0.50;;;17.00;99.90;;;;;;5071953;28;20143;-95
2022/10/05 02:25:48;;;;;;;;;;;;;;;;;;;;;
2022/10/05 02:28:36;;;;;;;0.93;0.65;;;17.00;99.90;;;;;;5072006;28;20076;-95
2022/10/05 02:31:08;;;;;;;0.90;0.43;;;17.00;99.90;;;;;;5073222;28;20036;-96
2022/10/05 02:33:35;;;;;;;1.33;0.57;;;17.00;99.90;;;;;;5085877;28;20076;-96
2022/10/05 02:36:28;;;;;;;2.22;0.77;;;17.00;99.90;;;;;;5077493;28;20039;-95
2022/10/05 02:39:02;;;;;;;0.93;0.60;;;17.00;99.90;;;;;;5098808;28;20039;-96
2022/10/05 02:41:35;;;;;;;1.02;0.60;;;17.00;99.90;;;;;;5110914;28;20052;-96
2022/10/05 02:44:11;;;;;;;;;;;17.10;99.90;;;;;;5091215;28;20045;-95
2022/10/05 02:46:55;;;;;;;2.40;0.73;;;17.00;99.90;;;;;;5088942;28;19951;-95
2022/10/05 02:49:50;;;;;;;1.35;0.65;;;17.10;99.90;;;;;;5085653;28;20111;-96
2022/10/05 02:52:23;;;;;;;;;;;17.00;99.90;;;;;;5087931;28;20052;-96
2022/10/05 02:55:14;;;;;;;1.30;0.80;;;17.00;99.90;;;;;;5075032;28;19927;-93
2022/10/05 02:58:18;;;;;;;1.40;0.60;;;17.00;99.90;;;;;;5055357;28;20053;-95
2022/10/05 03:01:06;;;;;;;0.90;0.60;;;17.00;99.90;;;;;;5054786;28;20049;-95
2022/10/05 03:03:38;;;;;;;0.70;0.50;;;17.00;99.90;;;;;;5061394;28;20045;-96
2022/10/05 03:06:13;;;;;;;0.70;0.65;;;17.00;99.90;;;;;;5067454;28;20106;-95
2022/10/05 03:08:54;;;;;;;1.65;0.50;;;17.00;99.90;;;;;;5053755;28;20098;-94
2022/10/05 03:11:46;;;;;;;2.72;0.80;;;17.00;99.90;;;;;;5070339;28;20109;-95
2022/10/05 03:14:32;;;;;;;1.45;0.77;;;17.00;99.90;;;;;;5089317;28;20106;-92
2022/10/05 03:17:14;;;;;;;1.95;0.75;;;17.00;99.90;;;;;;5064914;28;20067;-95
2022/10/05 03:20:10;;;;;;;1.55;0.80;;;17.00;99.90;;;;;;5074726;28;20188;-95
2022/10/05 03:22:57;;;;;;;2.85;1.00;;;17.00;99.90;;;;;;5089293;28;20067;-96
2022/10/05 03:26:09;;;;;;;1.05;0.50;;;17.00;99.90;;;;;;5073424;28;20048;-96
2022/10/05 03:29:05;;;;;;;1.27;0.70;;;17.00;99.90;;;;;;5072558;28;20064;-95
2022/10/05 03:31:44;;;;;;;0.77;0.52;;;17.00;99.90;;;;;;5082650;28;20075;-96
2022/10/05 03:34:15;;;;;;;1.55;0.65;;;17.00;99.90;;;;;;5086186;28;20068;-95
2022/10/05 03:37:27;;;;;;;0.77;0.50;;;17.00;99.90;;;;;;5065230;28;20597;-94
2022/10/05 03:40:00;;;;;;;0.63;0.43;;;17.00;99.90;;;;;;5025947;28;20069;-95
2022/10/05 03:42:39;;;;;;;2.13;0.77;;;17.00;99.90;;;;;;5056959;28;20480;-95
2022/10/05 03:45:21;;;;;;;1.48;0.80;;;17.00;99.90;;;;;;5081972;28;20052;-94
2022/10/05 03:47:57;;;;;;;1.73;0.80;;;16.90;99.90;;;;;;5051351;28;20076;-96
2022/10/05 03:50:51;;;;;;;1.08;0.65;;;16.90;99.90;;;;;;5081608;28;20487;-95
2022/10/05 03:53:24;;;;;;;1.15;0.77;;;16.90;99.90;;;;;;5075077;28;20111;-95
2022/10/05 03:56:13;;;;;;;0.73;0.50;;;16.90;99.90;;;;;;5085494;28;20131;-94
2022/10/05 03:59:04;;;;;;;1.40;0.55;;;16.90;99.90;;;;;;5082644;28;20134;-96
2022/10/05 04:01:41;;;;;;;1.30;0.52;;;16.90;99.90;;;;;;5085674;28;20120;-96
2022/10/05 04:04:11;;;;;;;1.08;0.50;;;16.90;99.90;;;;;;5055090;28;20072;-95
2022/10/05 04:06:42;;;;;;;2.97;0.75;;;16.90;99.90;;;;;;5063116;28;20053;-95
2022/10/05 04:09:21;;;;;;;1.13;0.70;;;16.90;99.90;;;;;;5064989;28;20049;-96
2022/10/05 04:12:16;;;;;;;2.35;1.10;;;16.90;99.90;;;;;;5050271;28;20044;-96
2022/10/05 04:14:46;;;;;;;1.65;0.80;;;16.90;99.90;;;;;;5083821;28;20041;-95
2022/10/05 04:17:20;;;;;;;1.05;0.73;;;16.90;99.90;;;;;;5083327;28;20078;-95
2022/10/05 04:20:26;;;;;;;0.73;0.60;;;16.90;99.90;;;;;;5069548;28;20048;-96
2022/10/05 04:23:01;;;;;;;0.73;0.50;;;16.90;99.90;;;;;;5069095;28;20049;-96
2022/10/05 04:25:33;;;;;;;1.77;0.63;;;16.90;99.90;;;;;;5065774;28;20152;-95
2022/10/05 04:28:26;;;;;;;1.35;0.63;;;16.90;99.90;;;;;;5062549;28;20127;-96
2022/10/05 04:30:58;;;;;;;1.08;0.60;;;16.80;99.90;;;;;;5050939;28;20060;-95
2022/10/05 04:33:27;;;;;;;1.35;0.60;;;16.90;99.90;;;;;;5050544;28;20110;-96
2022/10/05 04:36:15;;;;;;;1.33;0.55;;;16.90;99.90;;;;;;5045801;28;20050;-94
2022/10/05 04:38:55;;;;;;;2.15;1.00;;;16.90;99.90;;;;;;5061757;28;20111;-96
2022/10/05 04:42:02;;;;;;;1.17;0.68;;;16.90;99.90;;;;;;5064100;28;20135;-94
2022/10/05 04:44:41;;;;;;;1.02;0.65;;;16.90;99.90;;;;;;5084430;28;20059;-95
2022/10/05 04:47:27;;;;;;;0.55;0.50;;;16.90;99.90;;;;;;5084365;28;20080;-95
2022/10/05 04:50:22;;;;;;;1.88;0.88;;;16.90;99.90;;;;;;5053094;28;20048;-95
2022/10/05 04:53:05;;;;;;;2.00;0.55;;;16.90;99.90;;;;;;5086450;28;20156;-95
2022/10/05 04:55:52;;;;;;;1.95;0.77;;;16.90;99.90;;;;;;5105794;28;20055;-95
2022/10/05 04:58:28;;;;;;;0.77;0.50;;;16.90;99.90;;;;;;5103027;28;20075;-95
2022/10/05 05:01:12;;;;;;;0.82;0.50;;;16.90;99.90;;;;;;5070380;28;20050;-95
2022/10/05 05:03:51;;;;;;;0.85;0.50;;;16.90;99.90;;;;;;5070101;28;20060;-95
2022/10/05 05:06:29;;;;;;;0.68;0.40;;;16.90;99.90;;;;;;5072648;28;20041;-96
2022/10/05 05:09:02;;;;;;;0.50;0.25;;;17.00;99.90;;;;;;5074619;28;20048;-94
2022/10/05 05:11:51;;;;;;;1.58;0.45;;;17.00;99.90;;;;;;5089702;28;20075;-95
2022/10/05 05:14:39;;;;;;;0.98;0.47;;;17.00;99.90;;;;;;5090451;28;20036;-94
2022/10/05 05:17:12;;;;;;;0.75;0.50;;;17.00;99.90;;;;;;5083557;28;20092;-94
2022/10/05 05:19:39;;;;;;;;;;;17.00;99.90;;;;;;5091445;28;20063;-93
2022/10/05 05:22:30;;;;;;;1.02;0.47;;;17.00;99.90;;;;;;5091391;28;19924;-94
2022/10/05 05:25:16;;;;;;;0.77;0.50;;;17.00;99.90;;;;;;5071624;28;20053;-94
2022/10/05 05:27:47;;;;;;;0.45;0.20;;;17.00;99.90;;;;;;5075981;28;20135;-94
2022/10/05 05:30:16;;;;;;;0.65;0.32;;;17.00;99.90;;;;;;5074246;28;20044;-94
2022/10/05 05:32:44;;;;;;;0.65;0.40;;;17.00;99.90;;;;;;5079953;28;20089;-95
2022/10/05 05:35:17;;;;;;;1.27;0.40;;;17.00;99.90;;;;;;5082167;28;20108;-95
2022/10/05 05:37:50;;;;;;;;;;;17.00;99.90;;;;;;5084389;28;20122;-95
2022/10/05 05:40:24;;;;;;;0.80;0.47;;;17.00;99.90;;;;;;5083772;28;19939;-95
2022/10/05 05:42:59;;;;;;;0.75;0.50;;;17.00;99.90;;;;;;5041037;28;20061;-94
2022/10/05 05:46:03;;;;;;;1.25;0.50;;;17.00;99.90;;;;;;5045505;28;20068;-95
2022/10/05 05:48:36;;;;;;;;;;;17.00;99.90;;;;;;5056912;28;20151;-95
2022/10/05 05:51:10;;;;;;;1.27;0.45;;;17.00;99.90;;;;;;5065064;28;19955;-96
2022/10/05 05:53:43;;;;;;;0.88;0.32;;;17.00;99.90;;;;;;5037738;28;20543;-94
2022/10/05 05:56:16;;;;;;;1.55;0.77;;;17.00;99.90;;;;;;5061189;28;20236;-95
2022/10/05 05:58:52;;;;;;;;;;;17.00;99.90;;;;;;5051988;28;20048;-94
2022/10/05 06:01:40;;;;;;;0.40;0.38;;;17.00;99.90;;;;;;5106775;22;19976;-96
2022/10/05 06:04:19;;;;;;;0.85;0.60;;;17.00;99.90;;;;;;5052271;28;20480;-93
2022/10/05 06:06:48;;;;;;;1.42;0.57;;;17.10;99.90;;;;;;5038379;28;20137;-92
2022/10/05 06:09:23;;;;;;;1.77;0.80;;;17.00;99.90;;;;;;5053682;28;20071;-91
2022/10/05 06:11:54;;;;;;;1.95;0.70;;;17.00;99.90;;;;;;5048963;28;20052;-90
2022/10/05 06:14:45;;;;;;;1.67;0.68;;;17.10;99.90;;;;;;5025449;28;20052;-90
2022/10/05 06:17:23;;;;;;;2.30;0.77;;;17.00;99.90;;;;;;5042733;28;20060;-89
2022/10/05 06:19:51;;;;;;;1.60;0.57;;;17.00;99.90;;;;;;5047056;28;20538;-90
2022/10/05 06:22:32;;;;;;;0.82;0.47;;;17.00;99.90;;;;;;5028818;28;20053;-91
2022/10/05 06:25:10;;;;;;;1.55;0.70;;;17.00;99.90;;;;;;5025890;28;20071;-91
2022/10/05 06:27:37;;;;;;;1.25;0.70;;;17.00;99.90;;;;;;5026853;28;20103;-90
2022/10/05 06:30:11;;;;;;;1.52;0.82;;;17.00;99.90;;;;;;5059827;28;20056;-91
2022/10/05 06:32:44;;;;;;;1.05;0.50;;;17.00;99.90;;;;;;5058900;28;20054;-91
2022/10/05 06:35:39;;;;;;;2.38;0.73;;;17.10;99.90;;;;;;5056820;28;20156;-93
2022/10/05 06:38:05;;;;;;;1.55;0.90;;;17.10;99.90;;;;;;5041973;28;20053;-93
2022/10/05 06:41:09;;;;;;;1.02;0.70;;;17.10;99.90;;;;;;5045987;28;20103;-93
2022/10/05 06:43:56;;;;;;;1.90;0.45;;;17.10;99.90;;;;;;5062791;28;20075;-92
2022/10/05 06:47:00;;;;;;;1.45;0.60;;;17.10;99.90;;;;;;5044638;28;20061;-93
2022/10/05 06:49:36;;;;;;;1.40;0.75;;;17.10;99.90;;;;;;5023638;28;20788;-92
2022/10/05 06:52:11;;;;;;;1.25;0.68;;;17.20;99.90;;;;;;5014369;28;20045;-92
2022/10/05 06:54:55;;;;;;;2.28;0.95;;;17.10;99.90;;;;;;5049643;28;20055;-91
2022/10/05 06:57:46;;;;;;;0.82;0.68;;;17.10;99.90;;;;;;5030817;28;20061;-91
2022/10/05 07:00:21;;;;;;;1.80;0.80;;;17.20;99.90;;;;;;5048190;28;20061;-92
2022/10/05 07:03:11;;;;;;;1.63;0.68;;;17.20;99.90;;;;;;4994102;28;20103;-91
2022/10/05 07:05:41;;;;;;;1.83;0.95;;;17.20;99.90;;;;;;5046254;28;20049;-91
2022/10/05 07:08:08;;;;;;;1.63;0.70;;;17.20;99.90;;;;;;5045052;28;20059;-91
2022/10/05 07:10:41;;;;;;;2.88;0.60;;;17.30;99.90;;;;;;5045196;28;20111;-91
2022/10/05 07:13:28;;;;;;;1.75;1.02;;;17.30;99.90;;;;;;5028599;28;20169;-92
2022/10/05 07:16:24;;;;;;;1.15;0.60;;;17.40;99.90;;;;;;5029251;28;20059;-91
2022/10/05 07:18:57;;;;;;;1.85;0.70;;;17.40;99.90;;;;;;5002016;28;20048;-92
2022/10/05 07:21:44;;;;;;;1.83;0.68;;;17.40;99.90;;;;;;5052615;28;20564;-92
2022/10/05 07:24:31;;;;;;;1.42;0.60;;;17.40;99.90;;;;;;5050761;28;20056;-92
2022/10/05 07:27:27;;;;;;;1.55;0.73;;;17.40;99.90;;;;;;5030381;28;20133;-90
2022/10/05 07:30:05;;;;;;;2.35;0.70;;;17.50;99.90;;;;;;5028971;28;20369;-90
2022/10/05 07:32:48;;;;;;;1.25;0.60;;;17.40;99.90;;;;;;5029448;28;20132;-90
2022/10/05 07:38:41;;;;;;;2.28;0.85;;;17.60;99.90;;;;;;5012805;28;20457;-90
2022/10/05 07:41:42;;;;;;;3.42;1.02;;;17.50;99.90;;;;;;5043727;28;20060;-88
2022/10/05 07:44:11;;;;;;;2.47;0.95;;;17.60;99.90;;;;;;5009999;28;20049;-90
2022/10/05 07:46:57;;;;;;;1.00;0.60;;;17.60;99.90;;;;;;5024405;28;20057;-91
2022/10/05 07:49:40;;;;;;;2.28;0.73;;;17.70;99.90;;;;;;4998568;28;20049;-90
2022/10/05 07:52:12;;;;;;;;;;;17.70;99.90;;;;;;5046235;28;20060;-93
2022/10/05 07:54:49;;;;;;;1.98;0.75;;;17.70;99.90;;;;;;5026014;28;19925;-94
2022/10/05 07:57:25;;;;;;;1.58;0.68;;;17.80;99.90;;;;;;5032250;28;20117;-92
2022/10/05 08:00:00;;;;;;;1.27;0.70;;;17.90;99.90;;;;;;5026704;28;20257;-93
2022/10/05 08:02:44;;;;;;;1.70;0.63;;;17.80;99.90;;;;;;5049468;28;20048;-92
2022/10/05 08:05:27;;;;;;;2.13;0.60;;;17.90;99.90;;;;;;5048426;28;20053;-94
2022/10/05 08:08:17;;;;;;;1.42;0.82;;;18.00;99.90;;;;;;5029522;28;20490;-92
2022/10/05 08:11:04;;;;;;;2.40;0.80;;;18.00;99.90;;;;;;5030972;28;20055;-94
2022/10/05 08:13:37;;;;;;;1.52;0.60;;;18.10;99.90;;;;;;5024192;28;20136;-92
2022/10/05 08:16:11;;;;;;;1.38;0.70;;;18.10;99.90;;;;;;4992687;28;20196;-90
2022/10/05 08:19:00;;;;;;;1.95;0.75;;;18.20;99.90;;;;;;4993759;28;20057;-91
2022/10/05 08:21:37;;;;;;;1.30;0.68;;;18.30;99.90;;;;;;5033348;28;20131;-90
2022/10/05 08:24:12;;;;;;;1.60;1.00;;;18.20;99.90;;;;;;5023392;28;20474;-93
2022/10/05 08:26:50;;;;;;;0.98;0.60;;;18.20;99.90;;;;;;5025906;28;20061;-93
2022/10/05 08:29:59;;;;;;;1.65;0.70;;;18.20;99.90;;;;;;5015509;28;20057;-94
2022/10/05 08:32:44;;;;;;;2.15;1.23;;;18.20;99.90;;;;;;5004638;28;20045;-91
2022/10/05 08:35:35;;;;;;;0.90;0.55;;;18.10;99.90;;;;;;5056549;28;20140;-91
2022/10/05 08:38:02;;;;;;;3.60;1.00;;;18.10;99.90;;;;;;5027230;28;20052;-90
2022/10/05 08:41:00;;;;;;;2.17;0.98;;;18.10;99.90;;;;;;5026634;28;20060;-92
2022/10/05 08:43:50;;;;;;;3.20;1.35;;;18.10;99.90;;;;;;5044461;28;20114;-92
2022/10/05 08:46:32;;;;;;;2.53;1.13;;;18.10;99.90;;;;;;5030258;28;20081;-92
2022/10/05 08:49:20;;;;;;;1.48;0.60;;;18.20;99.90;;;;;;5043373;28;20063;-91
2022/10/05 08:52:02;;;;;;;1.90;0.90;;;18.30;99.90;;;;;;5047896;28;20386;-93
2022/10/05 08:55:04;;;;;;;1.25;0.60;;;18.40;99.90;;;;;;5046164;28;20399;-94
2022/10/05 08:57:46;;;;;;;1.90;0.70;;;18.60;99.90;;;;;;5025022;28;20053;-94
2022/10/05 09:00:17;;;;;;;2.83;0.85;;;18.60;99.90;;;;;;5039908;28;20129;-94
2022/10/05 09:03:05;;;;;;;1.58;0.55;;;18.70;99.90;;;;;;5012801;28;20061;-93
2022/10/05 09:06:10;;;;;;;3.00;1.05;;;18.90;99.90;;;;;;5045683;28;20336;-94
2022/10/05 09:09:19;;;;;;;1.40;0.70;;;19.10;99.90;;;;;;5035686;28;20045;-93
2022/10/05 09:12:04;;;;;;;2.22;1.05;;;19.30;99.90;;;;;;4980401;28;20046;-93
2022/10/05 09:14:35;;;;;;;2.13;0.80;;;19.40;99.90;;;;;;4998064;28;20405;-93
2022/10/05 09:17:11;;;;;;;2.13;0.95;;;19.50;99.90;;;;;;5015135;28;20061;-93
2022/10/05 09:20:13;;;;;;;3.38;0.90;;;19.60;99.90;;;;;;5018104;28;20099;-94
2022/10/05 09:22:59;;;;;;;2.13;0.88;;;19.70;99.90;;;;;;5025082;28;20057;-94
2022/10/05 09:25:59;;;;;;;0.98;0.50;;;19.70;99.90;;;;;;5047542;28;20332;-93
2022/10/05 09:28:44;;;;;;;3.22;1.02;;;19.80;99.90;;;;;;5028728;28;20152;-93
2022/10/05 09:31:25;;;;;;;3.83;1.00;;;19.90;99.90;;;;;;5046905;28;20053;-93
2022/10/05 09:34:14;;;;;;;1.88;0.82;;;19.90;99.90;;;;;;5031919;28;20306;-94
2022/10/05 09:36:50;;;;;;;2.47;0.90;;;20.00;99.90;;;;;;5034082;28;20052;-93
2022/10/05 09:39:58;;;;;;;1.85;0.70;;;20.00;99.90;;;;;;5051125;28;20286;-94
2022/10/05 09:42:45;;;;;;;2.13;0.88;;;20.10;99.90;;;;;;5049806;28;20106;-94
2022/10/05 09:45:22;;;;;;;2.67;1.02;;;20.20;99.90;;;;;;5046853;28;20373;-95
2022/10/05 09:48:09;;;;;;;2.80;0.90;;;20.20;99.90;;;;;;5044594;28;20432;-95
2022/10/05 09:50:51;;;;;;;2.83;1.27;;;20.10;99.90;;;;;;5058370;28;20202;-92
2022/10/05 09:53:47;;;;;;;4.00;1.20;;;20.10;99.90;;;;;;5047122;28;20198;-92
2022/10/05 09:56:15;;;;;;;2.95;1.15;;;20.10;99.90;;;;;;5029833;28;20045;-92
2022/10/05 09:59:22;;;;;;;1.80;0.60;;;20.10;99.90;;;;;;5047298;28;20048;-93
2022/10/05 10:02:20;;;;;;;2.55;0.90;;;20.10;99.90;;;;;;4974094;28;20049;-94
2022/10/05 10:04:47;;;;;;;2.05;0.80;;;20.00;99.90;;;;;;5061503;28;20114;-92
2022/10/05 10:07:49;;;;;;;2.05;0.65;;;19.90;99.90;;;;;;5054859;28;20471;-92
2022/10/05 10:10:51;;;;;;;1.77;0.68;;;19.80;99.90;;;;;;5044352;28;20052;-91
2022/10/05 10:13:52;;;;;;;1.92;0.73;;;19.80;99.90;;;;;;5047809;28;20389;-91
2022/10/05 10:16:40;;;;;;;1.38;0.60;;;19.80;99.90;;;;;;5011522;28;20049;-92
2022/10/05 10:19:23;;;;;;;1.38;0.70;;;19.80;99.90;;;;;;5046263;28;20053;-91
2022/10/05 10:22:08;;;;;;;3.47;1.20;;;19.90;99.90;;;;;;5029903;28;20481;-92
2022/10/05 10:24:38;;;;;;;3.38;1.13;;;19.90;99.90;;;;;;5057943;28;20076;-93
2022/10/05 10:27:44;;;;;;;2.00;0.93;;;19.90;99.90;;;;;;5046578;28;20133;-92
2022/10/05 10:30:54;;;;;;;2.83;1.10;;;19.90;99.90;;;;;;5046232;28;20057;-92
2022/10/05 10:33:43;;;;;;;4.03;1.15;;;19.90;99.90;;;;;;5043921;28;20056;-92
2022/10/05 10:36:17;;;;;;;4.15;1.08;;;19.80;99.90;;;;;;5044800;28;20307;-92
2022/10/05 10:38:57;;;;;;;2.47;0.80;;;19.70;99.90;;;;;;5028932;28;20480;-91
2022/10/05 10:41:35;;;;;;;1.23;0.70;;;19.70;99.90;;;;;;5008784;28;20080;-92
2022/10/05 10:44:21;;;;;;;2.15;0.75;;;19.60;99.90;;;;;;5056711;28;20079;-91
2022/10/05 10:47:21;;;;;;;2.17;0.93;;;19.50;99.90;;;;;;5044196;28;20061;-91
2022/10/05 10:50:09;;;;;;;2.25;1.15;;;19.50;99.90;;;;;;5027286;28;20049;-91
2022/10/05 10:52:36;;;;;;;3.25;1.25;;;19.50;99.90;;;;;;5044438;28;20052;-91
2022/10/05 10:55:24;;;;;;;1.92;0.82;;;19.50;99.90;;;;;;5045560;28;20056;-91
2022/10/05 10:58:17;;;;;;;1.05;0.50;;;19.60;99.90;;;;;;5045493;28;20071;-91
2022/10/05 11:00:49;;;;;;;1.92;0.60;;;19.70;99.90;;;;;;5044422;28;20386;-91
2022/10/05 11:04:01;;;;;;;1.50;0.73;;;19.70;99.90;;;;;;5031278;28;20067;-90
2022/10/05 11:06:50;;;;;;;3.80;0.95;;;19.70;99.90;;;;;;5042786;28;20063;-95
2022/10/05 11:09:30;;;;;;;3.70;0.80;;;19.80;99.90;;;;;;5064627;28;20041;-95
2022/10/05 11:12:07;;;;;;;2.45;1.13;;;19.90;99.90;;;;;;5051226;28;20098;-95
2022/10/05 11:15:04;;;;;;;2.53;0.88;;;20.00;99.90;;;;;;5043507;28;20401;-95
2022/10/05 11:18:06;;;;;;;1.52;0.70;;;20.20;99.90;;;;;;5025423;28;20067;-95
2022/10/05 11:20:46;;;;;;;2.60;1.02;;;20.40;99.90;;;;;;5036215;28;20327;-94
2022/10/05 11:23:36;;;;;;;4.40;1.48;;;20.40;99.90;;;;;;5055378;28;20064;-94
2022/10/05 11:26:32;;;;;;;1.83;0.77;;;20.40;99.90;;;;;;5046580;28;20092;-94
2022/10/05 11:29:35;;;;;;;1.27;0.73;;;20.40;99.90;;;;;;5052009;28;20034;-93
2022/10/05 11:32:23;;;;;;;2.60;1.00;;;20.60;99.90;;;;;;4988469;28;20058;-93
2022/10/05 11:35:09;;;;;;;3.30;0.93;;;20.70;99.90;;;;;;5054684;28;20048;-93
2022/10/05 11:38:08;;;;;;;2.42;1.00;;;20.80;99.90;;;;;;5052626;28;20468;-93
2022/10/05 11:40:48;;;;;;;1.48;0.70;;;20.90;99.90;;;;;;5059740;28;20556;-94
2022/10/05 11:43:52;;;;;;;1.58;0.80;;;21.10;99.90;;;;;;5052023;28;20064;-93
2022/10/05 11:46:51;;;;;;;1.55;0.70;;;21.10;99.90;;;;;;5038006;28;20045;-91
2022/10/05 11:50:04;;;;;;;1.95;0.90;;;21.30;99.90;;;;;;5043031;28;20060;-92
2022/10/05 11:52:39;;;;;;;3.47;1.05;;;21.20;99.90;;;;;;5038171;28;20071;-92
2022/10/05 11:55:26;;;;;;;1.52;0.90;;;21.10;99.90;;;;;;5015678;28;20077;-93
2022/10/05 11:58:14;;;;;;;3.60;1.00;;;21.10;99.90;;;;;;5015185;28;20608;-92
2022/10/05 12:00:49;;;;;;;2.35;1.00;;;20.80;99.90;;;;;;5028892;28;20049;-93
2022/10/05 12:03:54;;;;;;;2.08;0.95;;;20.80;99.90;;;;;;5012415;28;20054;-92
2022/10/05 12:06:42;;;;;;;2.15;1.00;;;20.70;99.90;;;;;;4993558;28;20046;-93
2022/10/05 12:09:25;;;;;;;1.60;0.70;;;20.90;99.90;;;;;;4992274;28;20062;-93
2022/10/05 12:12:25;;;;;;;1.40;0.77;;;21.40;99.90;;;;;;4982014;28;20054;-93
2022/10/05 12:15:12;;;;;;;3.38;1.23;;;21.70;99.90;;;;;;4997289;28;20779;-94
2022/10/05 12:18:14;;;;;;;1.27;0.57;;;21.80;99.90;;;;;;4999862;28;20190;-94
2022/10/05 12:21:10;;;;;;;3.03;1.20;;;22.00;99.90;;;;;;5015476;28;20064;-94
2022/10/05 12:24:06;;;;;;;2.13;0.98;;;21.80;99.90;;;;;;5010944;28;20118;-92
2022/10/05 12:26:41;;;;;;;1.60;0.80;;;21.60;99.90;;;;;;4995545;28;20053;-93
2022/10/05 12:29:35;;;;;;;1.90;0.88;;;21.60;99.90;;;;;;4987458;28;20172;-93
2022/10/05 12:32:17;;;;;;;1.05;0.50;;;21.50;99.90;;;;;;4985422;28;20057;-93
2022/10/05 12:35:02;;;;;;;0.85;0.40;;;21.30;99.90;;;;;;5005609;28;20069;-94
2022/10/05 12:37:52;;;;;;;1.67;0.70;;;21.00;99.90;;;;;;4988649;28;20057;-92
2022/10/05 12:40:50;;;;;;;3.08;0.63;;;20.30;99.90;;;;;;5001828;28;20049;-92
2022/10/05 12:43:34;;;;;;;2.38;0.80;;;19.80;99.90;;;;;;4986895;28;20072;-94
2022/10/05 12:46:44;;;;;;;0.95;0.50;;;19.50;99.90;;;;;;5006364;28;20042;-93
2022/10/05 12:49:40;;;;;;;2.60;1.00;;;19.00;99.90;;;;;;5002629;28;20041;-92
2022/10/05 12:52:30;;;;;;;1.52;0.80;;;18.70;99.90;;;;;;5005649;28;20076;-93
2022/10/05 12:55:28;;;;;;;0.93;0.47;;;18.40;99.90;;;;;;4989646;28;20062;-92
2022/10/05 12:58:28;;;;;;;1.27;0.50;;;18.10;99.90;;;;;;4989936;28;20050;-91
2022/10/05 13:01:25;;;;;;;2.05;1.00;;;17.80;99.90;;;;;;5020119;28;20053;-92
2022/10/05 13:04:25;;;;;;;2.42;1.00;;;17.60;99.90;;;;;;5037465;28;20122;-92
2022/10/05 13:07:01;;;;;;;3.08;1.27;;;17.50;99.90;;;;;;5022169;28;20041;-93
2022/10/05 13:09:41;;;;;;;2.22;0.95;;;17.40;99.90;;;;;;5025013;28;20144;-91
2022/10/05 13:12:39;;;;;;;2.00;0.90;;;17.40;99.90;;;;;;5027716;28;20068;-93
2022/10/05 13:15:09;;;;;;;1.88;0.70;;;17.50;99.90;;;;;;5049622;28;20558;-93
2022/10/05 13:17:44;;;;;;;1.87;0.80;;;17.60;99.90;;;;;;5047355;28;20080;-91
2022/10/05 13:20:34;;;;;;;1.70;0.60;;;17.60;99.90;;;;;;5051167;28;20049;-93
2022/10/05 13:23:25;;;;;;;1.17;0.60;;;17.80;99.90;;;;;;5026204;28;20048;-93
2022/10/05 13:26:16;;;;;;;2.05;0.60;;;17.90;99.90;;;;;;5049647;28;20052;-93
2022/10/05 13:28:56;;;;;;;4.32;1.05;;;18.00;99.90;;;;;;5029488;28;20126;-91
2022/10/05 13:31:37;;;;;;;0.80;0.60;;;18.20;99.90;;;;;;5021369;28;20129;-92
2022/10/05 13:34:12;;;;;;;1.75;0.98;;;18.40;99.90;;;;;;5052946;28;20063;-91
2022/10/05 13:36:59;;;;;;;2.25;1.00;;;18.40;99.90;;;;;;5069443;28;20346;-92
2022/10/05 13:39:51;;;;;;;3.58;1.58;;;18.40;99.90;;;;;;5022764;28;20064;-92
2022/10/05 13:42:25;;;;;;;4.30;1.70;;;18.40;99.90;;;;;;5052680;28;20075;-92
2022/10/05 13:44:57;;;;;;;4.10;1.40;;;18.40;99.90;;;;;;5026760;28;20049;-91
2022/10/05 13:47:30;;;;;;;2.80;1.35;;;18.30;99.90;;;;;;5028906;28;20055;-91
2022/10/05 13:50:24;;;;;;;4.55;1.88;;;18.20;99.90;;;;;;5033285;28;20481;-92
2022/10/05 13:53:24;;;;;;;3.42;1.67;;;18.10;99.90;;;;;;5029269;28;20073;-91
2022/10/05 13:55:59;;;;;;;4.07;1.23;;;18.00;99.90;;;;;;5048808;28;20049;-93
2022/10/05 13:58:31;;;;;;;3.78;1.52;;;18.00;99.90;;;;;;5033348;28;20057;-91
2022/10/05 14:01:06;;;;;;;4.05;1.10;;;17.90;99.90;;;;;;5034415;28;20064;-87
2022/10/05 14:03:35;;;;;;;4.43;1.70;;;17.60;99.90;;;;;;5007950;28;20477;-92
2022/10/05 14:06:12;;;;;;;4.78;1.55;;;17.10;99.90;;;;;;5019040;28;20145;-93
2022/10/05 14:08:51;;;;;;;3.58;1.25;;;16.80;99.90;;;;;;5020639;28;20045;-95
2022/10/05 14:11:33;;;;;;;2.25;0.80;;;16.60;99.90;;;;;;5021776;28;20076;-96
2022/10/05 14:14:12;;;;;;;2.07;0.83;;;16.40;99.90;;;;;;5029614;28;20057;-96
2022/10/05 14:16:53;;;;;;;1.30;0.60;;;16.10;99.90;;;;;;5035350;28;20220;-95
2022/10/05 14:19:32;;;;;;;1.42;0.50;;;16.10;99.90;;;;;;5017560;28;20045;-95